Time;durP1;ratioP1;P1;durP2;ratioP2;P2;SDS_P1;SDS_P2;PMS_P1;PMS_P2;Temp;Humidity;BMP_temperature;BMP_pressure;BME280_temperature;BME280_humidity;BME280_pressure;Samples;Min_cycle;Max_cycle;Signal;HPM_P1;HPM_P2
2022/12/08 00:01:06;;;;;;;;;;;3.30;98.50;;;;;;5062622;28;19998;-74
2022/12/08 00:03:33;;;;;;;;;;;3.40;98.60;;;;;;5062647;28;19978;-74
2022/12/08 00:11:27;;;;;;;;;;;3.30;98.50;;;;;;5061134;28;20017;-73
2022/12/08 00:13:54;;;;;;;;;;;3.30;98.50;;;;;;5064091;28;19986;-74
2022/12/08 00:16:22;;;;;;;;;;;3.30;98.50;;;;;;5058203;28;19998;-74
2022/12/08 00:18:49;;;;;;;;;;;3.20;98.80;;;;;;5058941;28;19991;-74
2022/12/08 00:21:16;;;;;;;;;;;3.20;98.50;;;;;;5062866;28;21113;-75
2022/12/08 00:23:42;;;;;;;;;;;3.20;98.50;;;;;;5062310;28;19975;-73
2022/12/08 00:26:09;;;;;;;;;;;3.20;98.60;;;;;;5061698;28;19979;-74
2022/12/08 00:28:35;;;;;;;;;;;3.20;98.50;;;;;;5063444;28;19982;-75
2022/12/08 00:31:07;;;;;;;;;;;3.20;98.50;;;;;;5063653;28;19995;-74
2022/12/08 00:33:35;;;;;;;;;;;3.20;98.50;;;;;;5062836;28;19992;-74
2022/12/08 00:36:04;;;;;;;;;;;3.20;98.50;;;;;;5065418;28;19976;-73
2022/12/08 00:38:31;;;;;;;;;;;3.20;98.50;;;;;;5060188;28;19975;-74
2022/12/08 00:40:57;;;;;;;;;;;3.20;98.50;;;;;;5063096;28;19992;-74
2022/12/08 00:43:25;;;;;;;;;;;3.10;98.50;;;;;;5066939;28;19980;-74
2022/12/08 00:45:52;;;;;;;;;;;3.10;98.50;;;;;;5063600;28;20007;-73
2022/12/08 00:48:18;;;;;;;;;;;3.10;98.50;;;;;;5068688;28;19975;-74
2022/12/08 00:50:46;;;;;;;;;;;3.10;98.50;;;;;;5068169;28;20526;-74
2022/12/08 00:53:13;;;;;;;;;;;3.10;98.50;;;;;;5061312;28;20451;-74
2022/12/08 00:55:39;;;;;;;;;;;3.10;98.50;;;;;;5065926;28;19998;-74
2022/12/08 00:58:06;;;;;;;;;;;3.10;98.50;;;;;;5064188;28;20254;-74
2022/12/08 01:00:32;;;;;;;;;;;3.10;98.60;;;;;;5064774;28;20003;-74
2022/12/08 01:02:59;;;;;;;;;;;3.10;98.60;;;;;;5066421;28;19976;-74
2022/12/08 01:05:25;;;;;;;;;;;3.10;98.50;;;;;;5067709;28;19976;-74
2022/12/08 01:07:53;;;;;;;;;;;3.10;98.60;;;;;;5066589;28;19987;-74
2022/12/08 01:10:20;;;;;;;;;;;3.10;98.60;;;;;;5064320;28;19987;-74
2022/12/08 01:12:46;;;;;;;;;;;3.10;98.60;;;;;;5068898;28;19999;-74
2022/12/08 01:15:13;;;;;;;;;;;3.10;98.60;;;;;;5065856;28;19976;-75
2022/12/08 01:17:39;;;;;;;;;;;3.10;98.60;;;;;;5073079;28;19983;-74
2022/12/08 01:20:07;;;;;;;;;;;3.00;98.50;;;;;;5067076;28;19998;-73
2022/12/08 01:22:34;;;;;;;;;;;3.00;98.50;;;;;;5067154;28;19974;-73
2022/12/08 01:25:02;;;;;;;;;;;3.00;98.50;;;;;;5063148;28;20053;-74
2022/12/08 01:27:29;;;;;;;;;;;3.00;98.50;;;;;;5060726;28;19976;-74
2022/12/08 01:29:56;;;;;;;;;;;3.00;98.50;;;;;;5067084;28;19996;-73
2022/12/08 01:32:22;;;;;;;;;;;3.00;98.50;;;;;;5064284;28;20060;-74
2022/12/08 01:34:49;;;;;;;;;;;3.00;98.50;;;;;;5067085;28;19979;-73
2022/12/08 01:37:16;;;;;;;;;;;3.00;98.50;;;;;;5067885;28;19975;-74
2022/12/08 01:39:43;;;;;;;;;;;3.00;98.50;;;;;;5064600;28;19998;-74
2022/12/08 01:42:18;;;;;;;;;;;3.00;98.50;;;;;;5060608;28;19987;-73
2022/12/08 01:44:57;;;;;;;;;;;3.00;98.50;;;;;;5066079;28;19982;-74
2022/12/08 01:47:27;;;;;;;;;;;2.90;98.50;;;;;;5066877;28;19998;-74
2022/12/08 01:49:53;;;;;;;;;;;3.00;98.50;;;;;;5062005;28;20578;-74
2022/12/08 01:52:22;;;;;;;;;;;3.00;98.50;;;;;;5066671;28;19991;-74
2022/12/08 01:54:50;;;;;;;;;;;2.90;98.50;;;;;;5059385;28;20058;-74
2022/12/08 01:57:20;;;;;;;;;;;2.90;98.50;;;;;;5064475;28;20375;-73
2022/12/08 01:59:49;;;;;;;;;;;2.90;98.50;;;;;;5061952;28;19999;-75
2022/12/08 02:02:16;;;;;;;;;;;2.90;98.80;;;;;;5062985;28;19995;-74
2022/12/08 02:04:42;;;;;;;;;;;2.90;98.50;;;;;;5064805;28;19982;-72
2022/12/08 02:07:10;;;;;;;;;;;2.90;98.50;;;;;;5066325;28;20439;-74
2022/12/08 02:09:36;;;;;;;;;;;2.90;98.60;;;;;;5063722;28;20713;-71
2022/12/08 02:12:03;;;;;;;;;;;2.90;98.60;;;;;;5065635;28;20462;-74
2022/12/08 02:14:31;;;;;;;;;;;2.80;98.50;;;;;;5066464;28;19976;-75
2022/12/08 02:17:03;;;;;;;;;;;2.90;98.60;;;;;;5057608;28;20355;-74
2022/12/08 02:19:37;;;;;;;;;;;2.80;98.50;;;;;;5063710;28;20078;-74
2022/12/08 02:22:08;;;;;;;;;;;2.80;98.50;;;;;;5059204;28;20492;-73
2022/12/08 02:24:37;;;;;;;;;;;2.80;98.50;;;;;;5059713;28;20024;-74
2022/12/08 02:27:18;;;;;;;;;;;2.80;98.50;;;;;;5059245;28;20029;-74
2022/12/08 02:30:00;;;;;;;;;;;2.80;98.50;;;;;;5065206;28;19987;-72
2022/12/08 02:32:42;;;;;;;;;;;2.80;98.50;;;;;;5064054;28;20004;-74
2022/12/08 02:35:13;;;;;;;;;;;2.80;98.50;;;;;;5062516;28;19998;-73
2022/12/08 02:37:42;;;;;;;;;;;2.80;98.50;;;;;;5066069;28;19980;-74
2022/12/08 02:40:13;;;;;;;;;;;2.80;98.60;;;;;;5059512;28;19991;-74
2022/12/08 02:42:43;;;;;;;;;;;2.80;98.60;;;;;;5064521;28;19994;-74
2022/12/08 02:45:13;;;;;;;;;;;2.80;98.60;;;;;;5063742;28;20701;-74
2022/12/08 02:47:40;;;;;;;;;;;2.70;98.60;;;;;;5064806;28;19983;-74
2022/12/08 02:50:08;;;;;;;;;;;2.70;98.60;;;;;;5058880;28;20364;-74
2022/12/08 02:52:43;;;;;;;;;;;2.70;98.50;;;;;;5060428;28;20566;-74
2022/12/08 02:55:14;;;;;;;;;;;2.70;98.60;;;;;;5057176;28;20351;-75
2022/12/08 02:57:48;;;;;;;;;;;2.70;98.50;;;;;;5060497;28;19976;-74
2022/12/08 03:00:16;;;;;;;;;;;2.70;98.60;;;;;;5057961;28;19996;-73
2022/12/08 03:02:45;;;;;;;;;;;2.70;98.60;;;;;;5062515;28;19979;-73
2022/12/08 03:05:19;;;;;;;;;;;2.70;98.70;;;;;;5059291;28;19975;-72
2022/12/08 03:07:49;;;;;;;;;;;2.60;98.50;;;;;;5060037;28;19983;-75
2022/12/08 03:10:19;;;;;;;;;;;2.70;98.50;;;;;;5066309;28;20522;-74
2022/12/08 03:12:48;;;;;;;;;;;2.70;98.50;;;;;;5064328;28;20000;-74
2022/12/08 03:15:16;;;;;;;;;;;2.70;98.60;;;;;;5062225;28;19980;-74
2022/12/08 03:17:45;;;;;;;;;;;2.60;98.50;;;;;;5062487;28;19983;-74
2022/12/08 03:20:14;;;;;;;;;;;2.60;98.50;;;;;;5065015;28;19992;-73
2022/12/08 03:22:41;;;;;;;;;;;2.60;98.60;;;;;;5064680;28;19975;-75
2022/12/08 03:25:10;;;;;;;;;;;2.60;98.60;;;;;;5059446;28;19987;-74
2022/12/08 03:27:36;;;;;;;;;;;2.70;98.60;;;;;;5064674;28;19994;-73
2022/12/08 03:30:03;;;;;;;;;;;2.60;98.60;;;;;;5057704;28;19992;-73
2022/12/08 03:32:33;;;;;;;;;;;2.60;98.60;;;;;;5060284;28;19988;-74
2022/12/08 03:35:01;;;;;;;;;;;2.60;98.60;;;;;;5064366;28;20440;-74
2022/12/08 03:37:28;;;;;;;;;;;2.60;98.60;;;;;;5062522;28;19983;-74
2022/12/08 03:39:54;;;;;;;;;;;2.60;98.60;;;;;;5061942;28;19998;-74
2022/12/08 03:42:22;;;;;;;;;;;2.60;98.60;;;;;;5062656;28;20112;-73
2022/12/08 03:44:49;;;;;;;;;;;2.60;98.60;;;;;;5064912;28;20459;-74
2022/12/08 03:47:15;;;;;;;;;;;2.60;98.60;;;;;;5061727;28;19991;-74
2022/12/08 03:49:42;;;;;;;;;;;2.60;98.60;;;;;;5066144;28;20002;-74
2022/12/08 03:52:09;;;;;;;;;;;2.60;98.70;;;;;;5062668;28;19980;-74
2022/12/08 03:54:35;;;;;;;;;;;2.60;98.60;;;;;;5063087;28;19991;-75
2022/12/08 03:57:02;;;;;;;;;;;2.60;98.60;;;;;;5061475;28;19980;-73
2022/12/08 03:59:30;;;;;;;;;;;2.60;98.60;;;;;;5059703;28;20842;-74
2022/12/08 04:01:56;;;;;;;;;;;2.60;98.60;;;;;;5052775;28;20002;-72
2022/12/08 04:04:23;;;;;;;;;;;2.60;98.60;;;;;;5064880;28;19975;-74
2022/12/08 04:06:50;;;;;;;;;;;2.60;98.60;;;;;;5063162;28;19979;-74
2022/12/08 04:09:16;;;;;;;;;;;2.60;98.60;;;;;;5056535;28;19983;-74
2022/12/08 04:11:43;;;;;;;;;;;2.60;98.70;;;;;;5061105;28;19979;-74
2022/12/08 04:14:10;;;;;;;;;;;2.60;98.70;;;;;;5062100;28;19999;-75
2022/12/08 04:16:38;;;;;;;;;;;2.60;98.60;;;;;;5058577;28;20524;-73
2022/12/08 04:19:04;;;;;;;;;;;2.60;98.70;;;;;;5064313;28;20325;-74
2022/12/08 04:21:31;;;;;;;;;;;2.60;98.60;;;;;;5064463;28;19972;-74
2022/12/08 04:23:58;;;;;;;;;;;2.60;98.60;;;;;;5059584;28;19976;-74
2022/12/08 04:26:24;;;;;;;;;;;2.60;98.70;;;;;;5062668;28;19987;-74
2022/12/08 04:28:51;;;;;;;;;;;2.60;98.70;;;;;;5057433;28;20427;-74
2022/12/08 04:31:17;;;;;;;;;;;2.60;98.70;;;;;;5060448;28;19991;-73
2022/12/08 04:33:45;;;;;;;;;;;2.60;98.70;;;;;;5063836;28;19991;-73
2022/12/08 04:36:12;;;;;;;;;;;2.60;98.70;;;;;;5063861;28;19978;-74
2022/12/08 04:38:38;;;;;;;;;;;2.60;98.70;;;;;;5061749;28;20458;-74
2022/12/08 04:41:05;;;;;;;;;;;2.60;98.70;;;;;;5058844;28;20466;-74
2022/12/08 04:43:32;;;;;;;;;;;2.60;98.70;;;;;;5058894;28;20458;-74
2022/12/08 04:45:58;;;;;;;;;;;2.60;98.70;;;;;;5059530;28;20613;-74
2022/12/08 04:48:25;;;;;;;;;;;2.60;98.70;;;;;;5064216;28;19976;-74
2022/12/08 04:50:53;;;;;;;;;;;2.60;98.70;;;;;;5057367;28;19995;-73
2022/12/08 04:53:20;;;;;;;;;;;2.60;98.70;;;;;;5064505;28;19991;-73
2022/12/08 04:55:47;;;;;;;;;;;2.60;98.70;;;;;;5055666;28;19982;-74
2022/12/08 04:58:14;;;;;;;;;;;2.60;98.70;;;;;;5062236;28;20014;-73
2022/12/08 05:00:41;;;;;;;;;;;2.60;98.70;;;;;;5062792;28;19999;-74
2022/12/08 05:03:08;;;;;;;;;;;2.60;98.70;;;;;;5065064;28;19987;-73
2022/12/08 05:05:35;;;;;;;;;;;2.60;98.70;;;;;;5060479;28;20459;-74
2022/12/08 05:08:03;;;;;;;;;;;2.60;98.70;;;;;;5064258;28;19982;-75
2022/12/08 05:10:29;;;;;;;;;;;2.60;98.70;;;;;;5061567;28;19991;-73
2022/12/08 05:12:57;;;;;;;;;;;2.60;98.70;;;;;;5059593;28;19979;-74
2022/12/08 05:15:24;;;;;;;;;;;2.60;98.70;;;;;;5057620;28;20630;-74
2022/12/08 05:17:51;;;;;;;;;;;2.60;98.70;;;;;;5061678;28;19983;-74
2022/12/08 05:20:17;;;;;;;;;;;2.60;98.70;;;;;;5061044;28;19995;-73
2022/12/08 05:22:44;;;;;;;;;;;2.60;98.70;;;;;;5048520;28;19976;-74
2022/12/08 05:25:12;;;;;;;;;;;2.60;98.70;;;;;;5054265;28;19983;-74
2022/12/08 05:27:38;;;;;;;;;;;2.60;98.70;;;;;;5064797;28;20020;-74
2022/12/08 05:30:06;;;;;;;;;;;2.60;98.70;;;;;;5065829;28;19995;-74
2022/12/08 05:32:32;;;;;;;;;;;2.60;98.70;;;;;;5059880;28;19999;-74
2022/12/08 05:34:59;;;;;;;;;;;2.60;98.70;;;;;;5068634;28;20002;-74
2022/12/08 05:37:25;;;;;;;;;;;2.60;98.70;;;;;;5065952;28;19982;-74
2022/12/08 05:39:52;;;;;;;;;;;2.60;98.70;;;;;;5059235;28;19995;-74
2022/12/08 05:42:20;;;;;;;;;;;2.60;98.70;;;;;;5063234;28;19983;-73
2022/12/08 05:44:46;;;;;;;;;;;2.70;98.70;;;;;;5065438;28;19994;-74
2022/12/08 05:47:13;;;;;;;;;;;2.60;98.70;;;;;;5062668;28;20078;-73
2022/12/08 05:49:39;;;;;;;;;;;2.60;98.70;;;;;;5063780;28;19999;-74
2022/12/08 05:52:06;;;;;;;;;;;2.60;98.70;;;;;;5066091;28;19979;-74
2022/12/08 05:54:32;;;;;;;;;;;2.60;98.70;;;;;;5064452;28;19992;-74
2022/12/08 05:56:59;;;;;;;;;;;2.60;98.70;;;;;;5064180;28;19986;-73
2022/12/08 05:59:27;;;;;;;;;;;2.60;98.70;;;;;;5062885;28;20002;-73
2022/12/08 06:01:54;;;;;;;;;;;2.60;98.70;;;;;;5062319;28;20014;-74
2022/12/08 06:04:21;;;;;;;;;;;2.60;98.70;;;;;;5065708;28;19976;-73
2022/12/08 06:06:47;;;;;;;;;;;2.60;98.70;;;;;;5064106;28;20043;-74
2022/12/08 06:09:14;;;;;;;;;;;2.60;98.70;;;;;;5064660;28;19991;-74
2022/12/08 06:11:40;;;;;;;;;;;2.60;98.70;;;;;;5062013;28;19982;-73
2022/12/08 06:14:10;;;;;;;;;;;2.70;98.70;;;;;;5066711;28;19999;-73
2022/12/08 06:16:38;;;;;;;;;;;2.70;98.70;;;;;;5061349;28;19998;-72
2022/12/08 06:19:05;;;;;;;;;;;2.70;98.70;;;;;;5066372;28;19986;-74
2022/12/08 06:21:31;;;;;;;;;;;2.60;98.70;;;;;;5065640;28;20359;-74
2022/12/08 06:23:58;;;;;;;;;;;2.60;98.70;;;;;;5060545;28;19975;-74
2022/12/08 06:26:24;;;;;;;;;;;2.70;98.80;;;;;;5066034;28;19983;-74
2022/12/08 06:28:51;;;;;;;;;;;2.60;98.70;;;;;;5066472;28;19979;-74
2022/12/08 06:31:18;;;;;;;;;;;2.60;98.70;;;;;;5059299;28;20542;-73
2022/12/08 06:33:46;;;;;;;;;;;2.70;98.70;;;;;;5064475;28;20783;-74
2022/12/08 06:36:14;;;;;;;;;;;2.70;98.70;;;;;;5066087;28;19986;-74
2022/12/08 06:38:41;;;;;;;;;;;2.60;98.70;;;;;;5063627;28;19979;-74
2022/12/08 06:41:07;;;;;;;;;;;2.60;98.70;;;;;;5063217;28;19991;-74
2022/12/08 06:43:34;;;;;;;;;;;2.70;98.70;;;;;;5062424;28;19986;-74
2022/12/08 06:46:01;;;;;;;;;;;2.60;98.70;;;;;;5059479;28;19991;-74
2022/12/08 06:48:28;;;;;;;;;;;2.70;98.70;;;;;;5065434;28;19976;-74
2022/12/08 06:50:56;;;;;;;;;;;2.60;98.70;;;;;;5065924;28;19995;-74
2022/12/08 06:53:22;;;;;;;;;;;2.60;98.70;;;;;;5065333;28;19999;-74
2022/12/08 06:55:51;;;;;;;;;;;2.70;98.70;;;;;;5062944;28;20002;-74
2022/12/08 06:58:18;;;;;;;;;;;2.70;98.70;;;;;;5065230;28;19979;-74
2022/12/08 07:00:45;;;;;;;;;;;2.60;98.70;;;;;;5062612;28;20007;-74
2022/12/08 07:03:13;;;;;;;;;;;2.60;98.70;;;;;;5066026;28;20411;-73
2022/12/08 07:05:40;;;;;;;;;;;2.70;98.70;;;;;;5061676;28;20002;-74
2022/12/08 07:08:08;;;;;;;;;;;2.60;98.70;;;;;;5064366;28;19979;-74
2022/12/08 07:10:35;;;;;;;;;;;2.70;98.70;;;;;;5065364;28;19991;-74
2022/12/08 07:13:02;;;;;;;;;;;2.70;98.70;;;;;;5066570;28;19975;-75
2022/12/08 07:15:28;;;;;;;;;;;2.70;98.70;;;;;;5059956;28;20010;-75
2022/12/08 07:17:55;;;;;;;;;;;2.70;98.70;;;;;;5062875;28;20579;-73
2022/12/08 07:20:21;;;;;;;;;;;2.60;98.70;;;;;;5065023;28;20014;-74
2022/12/08 07:22:48;;;;;;;;;;;2.60;98.70;;;;;;5063449;28;19979;-74
2022/12/08 07:25:17;;;;;;;;;;;2.60;98.70;;;;;;5063924;28;19982;-74
2022/12/08 07:27:43;;;;;;;;;;;2.60;98.70;;;;;;5065298;28;19975;-72
2022/12/08 07:30:10;;;;;;;;;;;2.70;98.70;;;;;;5064502;28;20487;-74
2022/12/08 07:32:37;;;;;;;;;;;2.70;98.70;;;;;;5066029;28;19986;-73
2022/12/08 07:35:03;;;;;;;;;;;2.70;98.70;;;;;;5066095;28;19991;-74
2022/12/08 07:37:30;;;;;;;;;;;2.60;98.70;;;;;;5064617;28;20453;-74
2022/12/08 07:39:57;;;;;;;;;;;2.70;98.70;;;;;;5051235;28;20043;-74
2022/12/08 07:42:25;;;;;;;;;;;2.70;98.70;;;;;;5064304;28;19983;-74
2022/12/08 07:44:51;;;;;;;;;;;2.70;98.70;;;;;;5064850;28;20066;-74
2022/12/08 07:47:18;;;;;;;;;;;2.70;98.70;;;;;;5053303;28;19991;-75
2022/12/08 07:49:44;;;;;;;;;;;2.70;98.70;;;;;;5064293;28;19991;-73
2022/12/08 07:52:11;;;;;;;;;;;2.70;98.70;;;;;;5064286;28;19972;-75
2022/12/08 07:54:38;;;;;;;;;;;2.70;98.70;;;;;;5063589;28;20467;-73
2022/12/08 07:57:04;;;;;;;;;;;2.60;98.70;;;;;;5062377;28;20363;-74
2022/12/08 07:59:32;;;;;;;;;;;2.70;98.70;;;;;;5063771;28;20539;-74
2022/12/08 08:01:59;;;;;;;;;;;2.60;98.70;;;;;;5063837;28;20002;-74
2022/12/08 08:04:25;;;;;;;;;;;2.70;98.70;;;;;;5063690;28;19975;-74
2022/12/08 08:06:53;;;;;;;;;;;2.70;98.70;;;;;;5058983;28;19979;-74
2022/12/08 08:09:19;;;;;;;;;;;2.70;98.70;;;;;;5065211;28;19995;-73
2022/12/08 08:11:47;;;;;;;;;;;2.70;98.70;;;;;;5062051;28;19987;-74
2022/12/08 08:14:13;;;;;;;;;;;2.60;98.70;;;;;;5064377;28;20045;-74
2022/12/08 08:16:45;;;;;;;;;;;2.60;98.70;;;;;;5055998;28;19991;-74
2022/12/08 08:19:12;;;;;;;;;;;2.70;98.70;;;;;;5058838;28;19991;-72
2022/12/08 08:21:38;;;;;;;;;;;2.70;98.70;;;;;;5064403;28;19975;-74
2022/12/08 08:24:05;;;;;;;;;;;2.70;98.70;;;;;;5065005;28;19976;-73
2022/12/08 08:26:31;;;;;;;;;;;2.70;98.70;;;;;;5061702;28;19975;-74
2022/12/08 08:28:58;;;;;;;;;;;2.70;98.70;;;;;;5063638;28;19983;-75
2022/12/08 08:31:25;;;;;;;;;;;2.70;98.70;;;;;;5060837;28;19991;-74
2022/12/08 08:33:53;;;;;;;;;;;2.70;98.70;;;;;;5063526;28;20065;-74
2022/12/08 08:36:21;;;;;;;;;;;2.70;98.60;;;;;;5061009;28;19983;-73
2022/12/08 08:38:47;;;;;;;;;;;2.70;98.70;;;;;;5063324;28;19979;-74
2022/12/08 08:41:14;;;;;;;;;;;2.70;98.70;;;;;;5063637;28;19988;-75
2022/12/08 08:43:41;;;;;;;;;;;2.70;98.60;;;;;;5063827;28;19979;-73
2022/12/08 08:46:08;;;;;;;;;;;2.70;98.60;;;;;;5060205;28;20018;-73
2022/12/08 08:48:35;;;;;;;;;;;2.70;98.60;;;;;;5064483;28;20161;-74
2022/12/08 08:51:08;;;;;;;;;;;2.70;98.60;;;;;;5063420;28;19991;-74
2022/12/08 08:53:35;;;;;;;;;;;2.70;98.60;;;;;;5063029;28;19999;-73
2022/12/08 08:56:03;;;;;;;;;;;2.80;98.60;;;;;;5064495;28;19991;-73
2022/12/08 08:58:30;;;;;;;;;;;2.70;98.60;;;;;;5057903;28;19979;-74
2022/12/08 09:00:57;;;;;;;;;;;2.70;98.60;;;;;;5061621;28;19996;-75
2022/12/08 09:03:23;;;;;;;;;;;2.70;98.60;;;;;;5066055;28;19987;-73
2022/12/08 09:05:50;;;;;;;;;;;2.80;98.60;;;;;;5067366;28;19979;-74
2022/12/08 09:08:18;;;;;;;;;;;2.70;98.60;;;;;;5068392;28;20033;-74
2022/12/08 09:10:44;;;;;;;;;;;2.70;98.60;;;;;;5063676;28;19995;-74
2022/12/08 09:13:11;;;;;;;;;;;2.80;98.60;;;;;;5068618;28;20380;-75
2022/12/08 09:15:38;;;;;;;;;;;2.80;98.60;;;;;;5067012;28;20006;-74
2022/12/08 09:18:05;;;;;;;;;;;2.80;98.60;;;;;;5067894;28;19998;-73
2022/12/08 09:20:32;;;;;;;;;;;2.80;98.60;;;;;;5067484;28;19991;-75
2022/12/08 09:22:58;;;;;;;;;;;2.80;98.60;;;;;;5065481;28;19979;-74
2022/12/08 09:25:26;;;;;;;;;;;2.80;98.60;;;;;;5066162;28;19995;-73
2022/12/08 09:27:53;;;;;;;;;;;2.80;98.60;;;;;;5064836;28;19983;-73
2022/12/08 09:30:19;;;;;;;;;;;2.80;98.60;;;;;;5066216;28;19991;-74
2022/12/08 09:32:46;;;;;;;;;;;2.80;98.60;;;;;;5065541;28;19975;-75
2022/12/08 09:35:13;;;;;;;;;;;2.80;98.60;;;;;;5067352;28;19998;-75
2022/12/08 09:37:39;;;;;;;;;;;2.80;98.60;;;;;;5065720;28;20082;-74
2022/12/08 09:40:07;;;;;;;;;;;2.90;98.60;;;;;;5061635;28;19991;-74
2022/12/08 09:42:39;;;;;;;;;;;2.90;98.70;;;;;;5064154;28;19983;-74
2022/12/08 09:45:09;;;;;;;;;;;2.90;98.60;;;;;;5058274;28;19978;-72
2022/12/08 09:47:37;;;;;;;;;;;2.80;98.60;;;;;;5062240;28;20583;-72
2022/12/08 09:50:06;;;;;;;;;;;2.90;98.60;;;;;;5067001;28;19991;-75
2022/12/08 09:52:34;;;;;;;;;;;2.90;98.60;;;;;;5064270;28;19976;-74
2022/12/08 09:55:03;;;;;;;;;;;2.90;98.60;;;;;;5062405;28;20637;-73
2022/12/08 09:57:30;;;;;;;;;;;2.90;98.60;;;;;;5061805;28;20058;-73
2022/12/08 10:00:00;;;;;;;;;;;2.90;98.60;;;;;;5065387;28;19988;-73
2022/12/08 10:02:28;;;;;;;;;;;2.90;98.60;;;;;;5066570;28;19988;-74
2022/12/08 10:04:55;;;;;;;;;;;2.90;98.60;;;;;;5067032;28;19983;-74
2022/12/08 10:07:26;;;;;;;;;;;2.90;98.60;;;;;;5069537;28;19975;-75
2022/12/08 10:09:57;;;;;;;;;;;2.90;98.60;;;;;;5062182;28;20011;-75
2022/12/08 10:12:27;;;;;;;;;;;2.90;98.60;;;;;;5065845;28;20355;-74
2022/12/08 10:14:59;;;;;;;;;;;2.90;98.50;;;;;;5064386;28;20002;-74
2022/12/08 10:17:29;;;;;;;;;;;2.90;98.50;;;;;;5066536;28;20038;-73
2022/12/08 10:19:57;;;;;;;;;;;3.00;98.60;;;;;;5065495;28;19995;-74
2022/12/08 10:22:25;;;;;;;;;;;3.00;98.60;;;;;;5066143;28;19979;-74
2022/12/08 10:24:53;;;;;;;;;;;3.00;98.50;;;;;;5064432;28;20339;-75
2022/12/08 10:27:20;;;;;;;;;;;3.00;98.50;;;;;;5059907;28;19976;-74
2022/12/08 10:29:46;;;;;;;;;;;3.00;98.50;;;;;;5065990;28;19995;-75
2022/12/08 10:32:16;;;;;;;;;;;3.00;98.50;;;;;;5061956;28;19996;-74
2022/12/08 10:37:37;;;;;;;;;;;3.00;98.50;;;;;;5097801;27;19979;-71
2022/12/08 10:40:09;;;;;;;;;;;3.00;98.50;;;;;;5087956;28;19991;-74
2022/12/08 10:42:37;;;;;;;;;;;3.00;98.40;;;;;;5078766;28;19979;-71
2022/12/08 10:45:15;;;;;;;;;;;3.00;98.50;;;;;;5080172;28;20278;-73
2022/12/08 10:47:43;;;;;;;;;;;3.00;98.40;;;;;;5054933;28;19992;-73
2022/12/08 10:50:17;;;;;;;;;;;3.10;98.50;;;;;;5058389;28;20003;-73
2022/12/08 10:52:46;;;;;;;;;;;3.10;98.50;;;;;;5059868;28;19983;-73
2022/12/08 10:55:13;;;;;;;;;;;3.10;98.50;;;;;;5051399;28;20054;-74
2022/12/08 10:57:40;;;;;;;;;;;3.10;98.50;;;;;;5061620;28;19982;-74
2022/12/08 11:00:07;;;;;;;;;;;3.10;98.40;;;;;;5060187;28;19992;-73
2022/12/08 11:02:33;;;;;;;;;;;3.10;98.40;;;;;;5066108;28;20070;-73
2022/12/08 11:05:00;;;;;;;;;;;3.10;98.40;;;;;;5081027;28;19980;-74
2022/12/08 11:07:27;;;;;;;;;;;3.10;98.40;;;;;;5077261;28;19979;-74
2022/12/08 11:09:57;;;;;;;;;;;3.10;98.30;;;;;;5078102;28;20069;-73
2022/12/08 11:12:26;;;;;;;;;;;3.20;98.30;;;;;;5079897;28;20033;-73
2022/12/08 11:14:56;;;;;;;;;;;3.20;98.30;;;;;;5080491;28;19979;-73
2022/12/08 11:17:25;;;;;;;;;;;3.20;98.20;;;;;;5077665;28;20045;-74
2022/12/08 11:19:56;;;;;;;;;;;3.20;98.20;;;;;;5078895;28;19995;-73
2022/12/08 11:22:24;;;;;;;;;;;3.20;98.10;;;;;;5078918;28;20350;-72
2022/12/08 11:25:09;;;;;;;;;;;3.20;98.00;;;;;;5076570;28;19975;-73
2022/12/08 11:27:37;;;;;;;;;;;3.20;98.00;;;;;;5079145;28;20070;-71
2022/12/08 11:30:12;;;;;;;;;;;3.30;98.00;;;;;;5079297;28;19991;-73
2022/12/08 11:32:40;;;;;;;;;;;3.30;98.00;;;;;;5077727;28;20007;-74
2022/12/08 11:35:07;;;;;;;;;;;3.30;97.90;;;;;;5076520;28;20451;-73
2022/12/08 11:37:36;;;;;;;;;;;3.30;97.80;;;;;;5077165;28;20014;-73
2022/12/08 11:40:06;;;;;;;;;;;3.30;97.80;;;;;;5069043;28;19991;-74
2022/12/08 11:42:37;;;;;;;;;;;3.40;97.80;;;;;;5075285;28;19980;-74
2022/12/08 11:45:05;;;;;;;;;;;3.30;97.80;;;;;;5079547;28;19975;-73
2022/12/08 11:47:35;;;;;;;;;;;3.40;97.80;;;;;;5071189;28;20007;-74
2022/12/08 11:50:03;;;;;;;;;;;3.40;97.70;;;;;;5066784;28;19999;-74
2022/12/08 11:52:32;;;;;;;;;;;3.40;97.70;;;;;;5065940;28;19995;-74
2022/12/08 11:55:02;;;;;;;;;;;3.40;97.70;;;;;;5060505;28;19975;-73
2022/12/08 11:57:30;;;;;;;;;;;3.40;97.70;;;;;;5067056;28;20233;-73
2022/12/08 11:59:57;;;;;;;;;;;3.50;97.70;;;;;;5065135;28;19995;-72
2022/12/08 12:02:26;;;;;;;;;;;3.40;97.60;;;;;;5043645;28;20003;-72
2022/12/08 12:04:54;;;;;;;;;;;3.40;97.60;;;;;;5042898;28;19980;-72
2022/12/08 12:07:37;;;;;;;;;;;3.50;97.60;;;;;;5045771;28;19971;-73
2022/12/08 12:10:08;;;;;;;;;;;3.50;97.60;;;;;;5031993;28;20608;-73
2022/12/08 12:12:45;;;;;;;;;;;3.50;97.60;;;;;;5040355;28;20451;-74
2022/12/08 12:15:39;;;;;;;;;;;3.50;97.60;;;;;;5038102;28;19982;-73
2022/12/08 12:18:08;;;;;;;;;;;3.50;97.50;;;;;;5045002;28;19979;-73
2022/12/08 12:20:37;;;;;;;;;;;3.50;97.40;;;;;;5045511;28;20464;-74
2022/12/08 12:23:06;;;;;;;;;;;3.60;97.30;;;;;;5045318;28;20450;-74
2022/12/08 12:25:33;;;;;;;;;;;3.60;97.30;;;;;;5042725;28;20496;-73
2022/12/08 12:28:02;;;;;;;;;;;3.60;97.20;;;;;;5043544;28;19986;-74
2022/12/08 12:30:33;;;;;;;;;;;3.60;97.20;;;;;;5042085;28;20521;-72
2022/12/08 12:33:01;;;;;;;;;;;3.60;97.20;;;;;;5070718;28;19979;-74
2022/12/08 12:35:32;;;;;;;;;;;3.70;97.20;;;;;;5070150;28;19979;-73
2022/12/08 12:38:00;;;;;;;;;;;3.70;97.10;;;;;;5082585;28;19998;-73
2022/12/08 12:40:27;;;;;;;;;;;3.80;97.20;;;;;;5081364;28;19998;-73
2022/12/08 12:43:09;;;;;;;;;;;3.80;97.10;;;;;;5084402;28;19998;-73
2022/12/08 12:45:42;;;;;;;;;;;3.80;97.10;;;;;;5081746;28;20007;-71
2022/12/08 12:48:23;;;;;;;;;;;3.80;97.00;;;;;;5094326;28;19975;-73
2022/12/08 12:50:50;;;;;;;;;;;3.80;96.90;;;;;;5078248;28;19999;-72
2022/12/08 12:53:35;;;;;;;;;;;3.90;96.90;;;;;;5082739;28;19972;-72
2022/12/08 12:56:03;;;;;;;;;;;3.90;96.80;;;;;;5081826;28;19982;-73
2022/12/08 12:58:49;;;;;;;;;;;3.80;96.80;;;;;;5081986;28;19990;-73
2022/12/08 13:01:34;;;;;;;;;;;3.80;96.90;;;;;;5073457;28;20541;-74
2022/12/08 13:04:07;;;;;;;;;;;3.90;96.90;;;;;;5072338;28;19975;-73
2022/12/08 13:06:36;;;;;;;;;;;3.90;96.90;;;;;;5081146;28;20088;-73
2022/12/08 13:09:03;;;;;;;;;;;3.90;96.90;;;;;;5079682;28;19976;-73
2022/12/08 13:11:29;;;;;;;;;;;3.90;96.90;;;;;;5078924;28;19990;-73
2022/12/08 13:13:56;;;;;;;;;;;3.90;96.90;;;;;;5094192;28;19979;-74
2022/12/08 13:16:24;;;;;;;;;;;3.90;96.90;;;;;;5077085;28;20003;-74
2022/12/08 13:18:52;;;;;;;;;;;3.90;96.90;;;;;;5077175;28;19979;-74
2022/12/08 13:21:21;;;;;;;;;;;3.90;96.90;;;;;;5078324;28;19975;-73
2022/12/08 13:23:49;;;;;;;;;;;3.90;96.90;;;;;;5076594;28;19986;-73
2022/12/08 13:26:17;;;;;;;;;;;4.00;96.90;;;;;;5082490;28;19975;-74
2022/12/08 13:29:00;;;;;;;;;;;4.00;96.90;;;;;;5080156;28;19982;-74
2022/12/08 13:31:36;;;;;;;;;;;3.90;96.80;;;;;;5072091;28;20101;-74
2022/12/08 13:34:04;;;;;;;;;;;4.00;96.90;;;;;;5084218;28;19975;-74
2022/12/08 13:36:33;;;;;;;;;;;4.00;96.90;;;;;;5083158;28;19996;-73
2022/12/08 13:39:01;;;;;;;;;;;4.00;97.00;;;;;;5083970;28;19979;-73
2022/12/08 13:41:31;;;;;;;;;;;4.00;96.90;;;;;;5094890;28;19979;-73
2022/12/08 13:43:59;;;;;;;;;;;4.00;96.90;;;;;;5078626;28;19987;-73
2022/12/08 13:46:31;;;;;;;;;;;4.00;96.90;;;;;;5088535;28;20463;-73
2022/12/08 13:48:58;;;;;;;;;;;4.00;96.90;;;;;;5091669;28;19975;-73
2022/12/08 13:51:28;;;;;;;;;;;4.00;96.80;;;;;;5082684;28;20478;-73
2022/12/08 13:53:59;;;;;;;;;;;4.00;96.80;;;;;;5079189;28;19994;-73
2022/12/08 13:56:27;;;;;;;;;;;4.00;96.90;;;;;;5097485;28;19997;-74
2022/12/08 13:59:06;;;;;;;;;;;4.10;96.90;;;;;;5083546;28;20441;-73
2022/12/08 14:01:33;;;;;;;;;;;4.10;96.90;;;;;;5078049;28;19995;-73
2022/12/08 14:04:00;;;;;;;;;;;4.10;96.90;;;;;;5085601;28;19975;-74
2022/12/08 14:06:28;;;;;;;;;;;4.10;96.90;;;;;;5080452;28;19994;-74
2022/12/08 14:08:57;;;;;;;;;;;4.10;96.90;;;;;;5080352;28;19975;-74
2022/12/08 14:11:33;;;;;;;;;;;4.10;96.80;;;;;;5083402;28;19974;-73
2022/12/08 14:14:01;;;;;;;;;;;4.10;96.80;;;;;;5087925;28;19975;-73
2022/12/08 14:16:29;;;;;;;;;;;4.10;96.90;;;;;;5078595;28;19994;-74
2022/12/08 14:19:03;;;;;;;;;;;4.10;96.90;;;;;;5083919;28;20044;-73
2022/12/08 14:21:30;;;;;;;;;;;4.10;96.80;;;;;;5079286;28;19986;-74
2022/12/08 14:24:00;;;;;;;;;;;4.10;96.90;;;;;;5082124;28;19986;-72
2022/12/08 14:26:30;;;;;;;;;;;4.10;96.80;;;;;;5085251;28;19986;-73
2022/12/08 14:28:56;;;;;;;;;;;4.10;96.80;;;;;;5078313;28;20543;-73
2022/12/08 14:31:23;;;;;;;;;;;4.10;96.80;;;;;;5078923;28;19990;-73
2022/12/08 14:33:49;;;;;;;;;;;4.10;96.80;;;;;;5083210;28;19986;-73
2022/12/08 14:36:17;;;;;;;;;;;4.10;96.90;;;;;;5086854;28;20014;-73
2022/12/08 14:38:44;;;;;;;;;;;4.10;96.90;;;;;;5074400;28;20002;-72
2022/12/08 14:41:11;;;;;;;;;;;4.10;97.00;;;;;;5082249;28;20875;-72
2022/12/08 14:43:41;;;;;;;;;;;4.10;97.00;;;;;;5087625;28;19986;-73
2022/12/08 14:46:19;;;;;;;;;;;4.10;97.00;;;;;;5073845;28;20739;-73